Airfield :
LOGIN :

Register | Disclaimer

   EN    FR    IT 

 










Legend :    VFR   Marginal VFR   IFR   Intensive IFR   Very Intensive IFR
Visi :
Ceiling :
>= 8 km
>= 3000ft
5 to 8 km
1000 to 3000 ft
1500m to 5 km
500 to 1000 ft
800 to 1500m
200 to 500 ft
< 800m
< 200 ft
Symbols :   Thunderstorms  Fog  Heavy snow  Heavy precipitations  Wind > 20 kt
SIGMETs :     Misc.  Thunderstorms  Icing  Turbulence  Mountain Waves  Volcanic Ashes






- Airport Elevation : 584 ft


LFPV - Villacoublay Vélizy

CURRENT METAR :
  • 232130Z AUTO 11006KT 080V140 5000 BR NSC 13/13 Q1007 TEMPO 1400 BR BKN003

EXPIRED METARs :
  • 232100Z AUTO 08009KT 5000 BR NSC 13/13 Q1007 TEMPO 1400 BR BKN003
  • 232030Z AUTO 08010KT 4800 BR NSC 13/13 Q1007 TEMPO 1400 BR BKN003
  • 232000Z AUTO 09009KT 070V130 4800 BR NSC 13/13 Q1007 BECMG BKN006
  • 231930Z AUTO 09008KT 5000 BR NSC 13/13 Q1008 BECMG BKN006
  • 231900Z AUTO 08006KT 4500 BR NSC 13/13 Q1008 BECMG BKN006

TAF TAF LFPV
Valid from the 23 at 21:00 until the 24 at 21:00 UTC


232000Z 2321/2421 12008KT 3000 BR NSC
PROB30
TEMPO 2322/2404 1400 BR BKN003
BECMG 2404/2406 19010KT 9999 NSW BKN010
TEMPO 2406/2409 4000 -RA BKN005
BECMG 2409/2410 19012G22KT BKN015
TEMPO 2410/2419 -SHRA BKN020TCU
BECMG 2419/2420 24008KT



MET'MAP, your aeronautical weather chart ! - Copyright ORBIFLY December 2007 - Disclaimer

ORBIFLY MET'MAP TEAM :

Programming & Development : Alexandra Zaïnal
Concept & Development : Baudouin d'Aumeries
Co-Development & Prog : Marc-Olivier Méhu
Technical & hardware support : Manuel Goepfert

Contact : metmap@orbifly.com




SOURCES & CREDITS :

   NOAA